createdAt,value
2022-12-19T00:00:38.774Z,-2.60
2022-12-19T00:03:28.612Z,-2.60
2022-12-19T00:06:18.715Z,-2.60
2022-12-19T00:09:07.400Z,-2.50
2022-12-19T00:11:55.654Z,-2.50
2022-12-19T00:14:43.890Z,-2.50
2022-12-19T00:17:33.002Z,-2.40
2022-12-19T00:20:24.438Z,-2.40
2022-12-19T00:23:12.629Z,-2.40
2022-12-19T00:26:09.551Z,-2.30
2022-12-19T00:28:59.371Z,-2.40
2022-12-19T00:31:47.898Z,-2.40
2022-12-19T00:34:36.211Z,-2.40
2022-12-19T00:37:25.812Z,-2.30
2022-12-19T00:40:14.427Z,-2.30
2022-12-19T00:43:02.694Z,-2.30
2022-12-19T00:45:51.017Z,-2.30
2022-12-19T00:48:39.659Z,-2.20
2022-12-19T00:51:29.828Z,-2.20
2022-12-19T00:54:19.441Z,-2.30
2022-12-19T00:57:07.915Z,-2.30
2022-12-19T00:59:56.182Z,-2.30
2022-12-19T01:02:45.196Z,-2.30
2022-12-19T01:05:33.567Z,-2.30
2022-12-19T01:08:22.541Z,-2.20
2022-12-19T01:11:13.024Z,-2.20
2022-12-19T01:14:00.289Z,-2.10
2022-12-19T01:16:48.589Z,-2.20
2022-12-19T01:19:43.363Z,-2.10
2022-12-19T01:22:32.442Z,-2.10
2022-12-19T01:25:20.698Z,-2.10
2022-12-19T01:28:15.362Z,-2.10
2022-12-19T01:31:07.771Z,-2.10
2022-12-19T01:33:59.867Z,-2.00
2022-12-19T01:36:49.439Z,-2.00
2022-12-19T01:39:37.781Z,-1.90
2022-12-19T01:42:27.821Z,-1.90
2022-12-19T01:45:33.943Z,-1.90
2022-12-19T01:48:30.483Z,-1.90
2022-12-19T01:51:22.134Z,-1.80
2022-12-19T01:54:14.859Z,-1.80
2022-12-19T01:57:05.199Z,-1.80
2022-12-19T01:59:58.621Z,-1.70
2022-12-19T02:02:55.077Z,-1.70
2022-12-19T02:05:44.654Z,-1.70
2022-12-19T02:08:35.492Z,-1.70
2022-12-19T02:11:23.764Z,-1.70
2022-12-19T02:14:12.003Z,-1.70
2022-12-19T02:17:11.750Z,-1.70
2022-12-19T02:20:24.707Z,-1.70
2022-12-19T02:23:41.578Z,-1.60
2022-12-19T02:26:53.413Z,-1.60
2022-12-19T02:30:14.035Z,-1.50
2022-12-19T02:33:10.326Z,-1.50
2022-12-19T02:36:05.006Z,-1.40
2022-12-19T02:38:59.663Z,-1.40
2022-12-19T02:41:54.278Z,-1.30
2022-12-19T02:44:46.635Z,-1.30
2022-12-19T02:47:36.294Z,-1.30
2022-12-19T02:50:25.899Z,-1.20
2022-12-19T02:53:16.391Z,-1.20
2022-12-19T02:56:23.018Z,-1.20
2022-12-19T02:59:28.977Z,-1.10
2022-12-19T03:02:30.327Z,-1.10
2022-12-19T03:05:25.647Z,-1.10
2022-12-19T03:08:25.471Z,-1.10
2022-12-19T03:11:15.424Z,-1.10
2022-12-19T03:14:08.355Z,-1.00
2022-12-19T03:16:56.959Z,-1.00
2022-12-19T03:19:45.943Z,-0.90
2022-12-19T03:22:34.255Z,-1.00
2022-12-19T03:25:25.156Z,-0.90
2022-12-19T03:28:17.235Z,-0.90
2022-12-19T03:31:07.841Z,-0.90
2022-12-19T03:33:58.196Z,-0.90
2022-12-19T03:36:50.277Z,-0.80
2022-12-19T03:39:40.052Z,-0.80
2022-12-19T03:42:50.356Z,-0.80
2022-12-19T03:45:46.787Z,-0.80
2022-12-19T03:48:42.020Z,-0.80
2022-12-19T03:51:36.960Z,-0.80
2022-12-19T03:54:28.032Z,-0.70
2022-12-19T03:57:20.301Z,-0.70
2022-12-19T04:00:14.241Z,-0.80
2022-12-19T04:03:03.504Z,-0.70
2022-12-19T04:05:53.759Z,-0.70
2022-12-19T04:08:43.143Z,-0.70
2022-12-19T04:11:35.832Z,-0.60
2022-12-19T04:14:29.206Z,-0.60
2022-12-19T04:17:26.358Z,-0.60
2022-12-19T04:20:16.824Z,-0.60
2022-12-19T04:23:11.855Z,-0.60
2022-12-19T04:26:04.137Z,-0.60
2022-12-19T04:28:56.394Z,-0.60
2022-12-19T04:31:45.462Z,-0.60
2022-12-19T04:34:37.855Z,-0.50
2022-12-19T04:37:30.051Z,-0.50
2022-12-19T04:40:18.530Z,-0.50
2022-12-19T04:43:07.630Z,-0.40
2022-12-19T04:45:57.735Z,-0.40
2022-12-19T04:48:46.180Z,-0.40
2022-12-19T04:51:36.060Z,-0.40
2022-12-19T04:54:24.286Z,-0.40
2022-12-19T04:57:12.535Z,-0.40
2022-12-19T05:00:00.804Z,-0.40
2022-12-19T05:02:49.393Z,-0.30
2022-12-19T05:05:37.781Z,-0.30
2022-12-19T05:08:27.439Z,-0.30
2022-12-19T05:11:19.713Z,-0.30
2022-12-19T05:14:08.503Z,-0.20
2022-12-19T05:17:01.361Z,-0.20
2022-12-19T05:19:50.059Z,-0.10
2022-12-19T05:22:38.351Z,-0.20
2022-12-19T05:25:27.903Z,-0.10
2022-12-19T05:28:16.844Z,-0.10
2022-12-19T05:31:07.974Z,-0.10
2022-12-19T05:33:56.199Z,-0.10
2022-12-19T05:36:44.474Z,0.00
2022-12-19T05:39:32.732Z,0.00
2022-12-19T05:42:22.326Z,0.00
2022-12-19T05:45:10.818Z,0.00
2022-12-19T05:48:01.429Z,0.10
2022-12-19T05:50:50.593Z,0.10
2022-12-19T05:53:40.411Z,0.10
2022-12-19T05:56:28.683Z,0.10
2022-12-19T05:59:18.251Z,0.10
2022-12-19T06:02:06.627Z,0.10
2022-12-19T06:04:54.866Z,0.20
2022-12-19T06:07:43.100Z,0.20
2022-12-19T06:10:31.376Z,0.20
2022-12-19T06:13:24.834Z,0.20
2022-12-19T06:16:16.560Z,0.20
2022-12-19T06:19:05.003Z,0.20
2022-12-19T06:21:53.264Z,0.30
2022-12-19T06:24:41.657Z,0.30
2022-12-19T06:27:30.061Z,0.30
2022-12-19T06:30:18.412Z,0.30
2022-12-19T06:33:10.243Z,0.40
2022-12-19T06:35:59.989Z,0.40
2022-12-19T06:38:48.405Z,0.40
2022-12-19T06:42:04.292Z,0.40
2022-12-19T06:44:55.577Z,0.40
2022-12-19T06:47:44.298Z,0.40
2022-12-19T06:50:35.819Z,0.40
2022-12-19T06:53:24.555Z,0.40
2022-12-19T06:56:15.735Z,0.50
2022-12-19T06:59:04.064Z,0.50
2022-12-19T07:01:58.027Z,0.50
2022-12-19T07:04:50.673Z,0.60
2022-12-19T07:07:41.276Z,0.60
2022-12-19T07:10:30.570Z,0.60
2022-12-19T07:13:18.831Z,0.70
2022-12-19T07:16:08.569Z,0.70
2022-12-19T07:18:56.928Z,0.70
2022-12-19T07:21:45.697Z,0.70
2022-12-19T07:24:36.588Z,0.70
2022-12-19T07:27:28.500Z,0.70
2022-12-19T07:30:20.126Z,0.80
2022-12-19T07:33:11.110Z,0.80
2022-12-19T07:36:00.123Z,0.80
2022-12-19T07:38:48.359Z,0.80
2022-12-19T07:41:39.413Z,0.90
2022-12-19T07:44:27.661Z,0.90
2022-12-19T07:47:15.885Z,0.90
2022-12-19T07:50:04.370Z,0.90
2022-12-19T07:52:52.594Z,0.90
2022-12-19T07:55:40.858Z,1.00
2022-12-19T07:58:31.323Z,1.00
2022-12-19T08:01:20.298Z,1.00
2022-12-19T08:04:08.582Z,1.00
2022-12-19T08:06:57.175Z,1.10
2022-12-19T08:09:45.577Z,1.10
2022-12-19T08:12:34.572Z,1.10
2022-12-19T08:15:24.773Z,1.10
2022-12-19T08:18:13.121Z,1.10
2022-12-19T08:21:01.379Z,1.10
2022-12-19T08:23:49.641Z,1.10
2022-12-19T08:26:41.900Z,1.10
2022-12-19T08:29:32.147Z,1.20
2022-12-19T08:32:22.055Z,1.20
2022-12-19T08:35:10.680Z,1.20
2022-12-19T08:38:00.121Z,1.20
2022-12-19T08:40:53.618Z,1.20
2022-12-19T08:43:42.023Z,1.30
2022-12-19T08:46:30.282Z,1.30
2022-12-19T08:49:20.840Z,1.30
2022-12-19T08:52:09.600Z,1.40
2022-12-19T08:54:57.943Z,1.40
2022-12-19T08:57:46.192Z,1.40
2022-12-19T09:00:34.457Z,1.40
2022-12-19T09:03:24.026Z,1.50
2022-12-19T09:06:19.153Z,1.50
2022-12-19T09:09:08.709Z,1.60
2022-12-19T09:11:59.885Z,1.60
2022-12-19T09:14:48.137Z,1.60
2022-12-19T09:17:36.337Z,1.60
2022-12-19T09:20:24.821Z,1.60
2022-12-19T09:23:14.392Z,1.60
2022-12-19T09:26:04.860Z,1.70
2022-12-19T09:28:53.728Z,1.60
2022-12-19T09:31:41.967Z,1.60
2022-12-19T09:34:37.607Z,1.60
2022-12-19T09:37:27.264Z,1.60
2022-12-19T09:40:18.733Z,1.70
2022-12-19T09:43:15.959Z,1.60
2022-12-19T09:46:12.828Z,1.70
2022-12-19T09:49:03.229Z,1.70
2022-12-19T09:51:58.596Z,1.70
2022-12-19T09:54:52.455Z,1.70
2022-12-19T09:57:50.626Z,1.70
2022-12-19T10:00:43.182Z,1.80
2022-12-19T10:03:39.648Z,1.80
2022-12-19T10:07:07.940Z,1.80
2022-12-19T10:11:44.309Z,1.80
2022-12-19T10:13:12.988Z,1.80
2022-12-19T10:16:08.694Z,1.80
2022-12-19T10:18:59.105Z,1.90
2022-12-19T10:25:20.366Z,1.90
2022-12-19T10:28:23.691Z,1.90
2022-12-19T10:31:22.023Z,1.90
2022-12-19T10:34:19.907Z,2.00
2022-12-19T10:37:24.329Z,1.90
2022-12-19T10:40:28.489Z,2.00
2022-12-19T10:43:33.633Z,2.00
2022-12-19T10:46:36.854Z,1.90
2022-12-19T10:49:27.642Z,1.90
2022-12-19T10:52:16.123Z,2.00
2022-12-19T10:55:20.760Z,2.00
2022-12-19T10:58:20.315Z,2.00
2022-12-19T11:01:14.682Z,2.00
2022-12-19T11:04:19.789Z,2.00
2022-12-19T11:07:23.204Z,2.10
2022-12-19T11:12:12.949Z,2.20
2022-12-19T11:19:17.968Z,2.20
2022-12-19T11:24:22.386Z,2.20
2022-12-19T11:29:40.134Z,2.20
2022-12-19T11:30:09.730Z,2.30
2022-12-19T11:30:36.479Z,2.30
2022-12-19T11:33:13.093Z,2.40
2022-12-19T11:36:03.653Z,2.40
2022-12-19T11:38:54.457Z,2.50
2022-12-19T11:41:47.443Z,2.40
2022-12-19T11:44:40.205Z,2.50
2022-12-19T11:47:38.022Z,2.50
2022-12-19T11:50:29.293Z,2.60
2022-12-19T11:53:20.531Z,2.70
2022-12-19T11:56:15.972Z,2.70
2022-12-19T11:59:23.031Z,2.70
2022-12-19T12:02:38.642Z,2.80
2022-12-19T12:05:45.418Z,2.80
2022-12-19T12:10:43.569Z,2.80
2022-12-19T12:18:38.400Z,2.80
2022-12-19T12:25:12.112Z,2.80
2022-12-19T12:30:59.799Z,2.80
2022-12-19T12:31:42.403Z,2.90
2022-12-19T12:31:44.725Z,2.90
2022-12-19T12:31:56.855Z,2.90
2022-12-19T12:35:40.932Z,3.00
2022-12-19T12:39:04.629Z,3.00
2022-12-19T12:42:07.164Z,3.10
2022-12-19T12:44:58.103Z,3.10
2022-12-19T12:47:49.146Z,3.10
2022-12-19T12:50:42.260Z,3.10
2022-12-19T12:53:36.135Z,3.10
2022-12-19T12:56:24.469Z,3.20
2022-12-19T12:59:24.613Z,3.20
2022-12-19T13:02:19.443Z,3.20
2022-12-19T13:05:26.450Z,3.20
2022-12-19T13:08:48.192Z,3.30
2022-12-19T13:11:57.170Z,3.30
2022-12-19T13:14:48.837Z,3.40
2022-12-19T13:18:14.602Z,3.50
2022-12-19T13:21:06.604Z,3.50
2022-12-19T13:24:17.392Z,3.60
2022-12-19T13:27:31.552Z,3.50
2022-12-19T13:30:21.447Z,3.60
2022-12-19T13:33:11.249Z,3.70
2022-12-19T13:39:50.137Z,3.70
2022-12-19T13:40:00.345Z,3.70
2022-12-19T13:43:09.729Z,3.70
2022-12-19T13:46:01.433Z,3.70
2022-12-19T13:48:51.752Z,3.70
2022-12-19T13:51:50.815Z,3.70
2022-12-19T13:54:48.699Z,3.80
2022-12-19T13:57:39.816Z,3.80
2022-12-19T14:00:35.185Z,3.80
2022-12-19T14:03:34.808Z,3.90
2022-12-19T14:06:25.887Z,3.90
2022-12-19T14:11:27.213Z,3.90
2022-12-19T14:13:54.088Z,3.90
2022-12-19T14:16:07.152Z,3.90
2022-12-19T14:18:56.942Z,4.00
2022-12-19T14:22:09.747Z,4.00
2022-12-19T14:25:45.123Z,4.00
2022-12-19T14:28:18.039Z,4.00
2022-12-19T14:31:21.571Z,4.10
2022-12-19T14:34:46.666Z,4.10
2022-12-19T14:37:31.573Z,4.10
2022-12-19T14:41:00.163Z,4.10
2022-12-19T14:51:51.315Z,4.20
2022-12-19T14:54:02.259Z,4.10
2022-12-19T14:54:12.268Z,4.10
2022-12-19T14:54:38.004Z,4.00
2022-12-19T14:57:04.488Z,4.00
2022-12-19T14:59:54.381Z,4.10
2022-12-19T15:02:42.766Z,4.10
2022-12-19T15:05:31.779Z,4.10
2022-12-19T15:11:00.746Z,4.20
2022-12-19T15:14:04.199Z,4.20
2022-12-19T15:15:21.793Z,4.20
2022-12-19T15:18:23.182Z,4.20
2022-12-19T15:21:12.525Z,4.20
2022-12-19T15:24:00.808Z,4.20
2022-12-19T15:26:51.752Z,4.20
2022-12-19T15:29:40.076Z,4.20
2022-12-19T15:32:29.723Z,4.30
2022-12-19T15:35:19.790Z,4.30
2022-12-19T15:38:08.485Z,4.30
2022-12-19T15:40:56.725Z,4.40
2022-12-19T15:46:55.306Z,4.40
2022-12-19T15:49:45.023Z,4.40
2022-12-19T15:52:33.314Z,4.40
2022-12-19T15:55:26.147Z,4.50
2022-12-19T15:58:14.806Z,4.50
2022-12-19T16:01:04.878Z,4.50
2022-12-19T16:03:53.668Z,4.60
2022-12-19T16:06:43.529Z,4.60
2022-12-19T16:09:33.108Z,4.60
2022-12-19T16:12:25.166Z,4.70
2022-12-19T16:15:22.707Z,4.70
2022-12-19T16:18:13.787Z,4.70
2022-12-19T16:21:02.079Z,4.70
2022-12-19T16:23:51.690Z,4.70
2022-12-19T16:26:41.245Z,4.70
2022-12-19T16:29:32.522Z,4.60
2022-12-19T16:32:23.101Z,4.60
2022-12-19T16:35:17.547Z,4.60
2022-12-19T16:38:12.477Z,4.60
2022-12-19T16:41:02.472Z,4.60
2022-12-19T16:43:51.653Z,4.70
2022-12-19T16:46:41.356Z,4.70
2022-12-19T16:49:33.066Z,4.70
2022-12-19T16:52:21.373Z,4.70
2022-12-19T16:55:10.158Z,4.70
2022-12-19T16:57:59.793Z,4.70
2022-12-19T17:00:48.446Z,4.80
2022-12-19T17:03:41.434Z,4.80
2022-12-19T17:06:29.859Z,4.70
2022-12-19T17:09:20.560Z,4.70
2022-12-19T17:12:17.183Z,4.70
2022-12-19T17:15:13.991Z,4.80
2022-12-19T17:18:04.950Z,4.80
2022-12-19T17:20:53.174Z,4.80
2022-12-19T17:23:42.371Z,4.80
2022-12-19T17:26:30.785Z,4.70
2022-12-19T17:29:19.036Z,4.70
2022-12-19T17:32:10.043Z,4.70
2022-12-19T17:34:58.380Z,4.70
2022-12-19T17:37:52.139Z,4.60
2022-12-19T17:40:40.984Z,4.60
2022-12-19T17:43:29.240Z,4.60
2022-12-19T17:46:19.568Z,4.60
2022-12-19T17:49:17.882Z,4.60
2022-12-19T17:52:10.620Z,4.60
2022-12-19T17:54:58.878Z,4.60
2022-12-19T17:57:47.509Z,4.60
2022-12-19T18:00:35.786Z,4.60
2022-12-19T18:03:25.850Z,4.70
2022-12-19T18:06:16.468Z,4.70
2022-12-19T18:09:05.030Z,4.80
2022-12-19T18:11:53.682Z,4.80
2022-12-19T18:14:41.940Z,4.90
2022-12-19T18:17:30.237Z,4.90
2022-12-19T18:20:31.269Z,5.00
2022-12-19T18:23:23.872Z,5.00
2022-12-19T18:26:13.213Z,5.00
2022-12-19T18:29:01.472Z,5.10
2022-12-19T18:31:51.192Z,5.10
2022-12-19T18:34:40.646Z,5.00
2022-12-19T18:37:28.917Z,5.10
2022-12-19T18:40:26.000Z,5.10
2022-12-19T18:43:18.599Z,5.10
2022-12-19T18:46:07.204Z,5.00
2022-12-19T18:48:55.662Z,5.00
2022-12-19T18:51:44.614Z,5.00
2022-12-19T18:54:32.902Z,5.00
2022-12-19T18:57:22.564Z,5.00
2022-12-19T19:00:12.095Z,5.00
2022-12-19T19:03:03.003Z,4.90
2022-12-19T19:05:51.531Z,4.80
2022-12-19T19:08:39.792Z,4.70
2022-12-19T19:11:31.476Z,4.70
2022-12-19T19:14:21.046Z,4.70
2022-12-19T19:17:25.121Z,4.70
2022-12-19T19:20:14.225Z,4.70
2022-12-19T19:23:02.718Z,4.70
2022-12-19T19:25:51.103Z,4.70
2022-12-19T19:28:39.423Z,4.70
2022-12-19T19:31:32.828Z,4.80
2022-12-19T19:34:25.006Z,4.80
2022-12-19T19:37:16.243Z,4.80
2022-12-19T19:40:04.888Z,4.70
2022-12-19T19:42:53.144Z,4.70
2022-12-19T19:45:43.690Z,4.70
2022-12-19T19:48:34.150Z,4.80
2022-12-19T19:51:22.704Z,4.90
2022-12-19T19:54:12.417Z,4.80
2022-12-19T19:57:00.664Z,4.80
2022-12-19T19:59:48.975Z,4.70
2022-12-19T20:02:38.191Z,4.80
2022-12-19T20:05:28.161Z,4.80
2022-12-19T20:08:17.981Z,4.80
2022-12-19T20:11:06.628Z,4.80
2022-12-19T20:13:54.930Z,4.80
2022-12-19T20:16:44.400Z,4.80
2022-12-19T20:19:32.677Z,4.80
2022-12-19T20:22:22.308Z,4.90
2022-12-19T20:25:10.906Z,5.10
2022-12-19T20:27:59.201Z,5.20
2022-12-19T20:30:47.543Z,5.30
2022-12-19T20:33:35.858Z,5.40
2022-12-19T20:36:25.099Z,5.50
2022-12-19T20:39:15.443Z,5.60
2022-12-19T20:42:03.744Z,5.70
2022-12-19T20:44:52.394Z,5.70
2022-12-19T20:47:40.669Z,5.80
2022-12-19T20:50:28.887Z,5.80
2022-12-19T20:53:17.148Z,5.80
2022-12-19T20:56:09.166Z,5.90
2022-12-19T20:58:57.517Z,6.00
2022-12-19T21:01:45.859Z,6.00
2022-12-19T21:04:34.444Z,6.10
2022-12-19T21:07:22.894Z,6.20
2022-12-19T21:10:11.611Z,6.30
2022-12-19T21:13:01.245Z,6.40
2022-12-19T21:15:53.008Z,6.40
2022-12-19T21:18:59.388Z,6.50
2022-12-19T21:21:47.677Z,6.50
2022-12-19T21:24:36.022Z,6.60
2022-12-19T21:27:24.296Z,6.70
2022-12-19T21:30:14.632Z,6.70
2022-12-19T21:33:04.092Z,6.70
2022-12-19T21:35:52.525Z,6.70
2022-12-19T21:38:41.477Z,6.70
2022-12-19T21:41:36.754Z,6.70
2022-12-19T21:44:26.364Z,6.60
2022-12-19T21:47:17.083Z,6.50
2022-12-19T21:50:05.938Z,6.60
2022-12-19T21:52:56.036Z,6.50
2022-12-19T21:55:44.310Z,6.40
2022-12-19T21:58:35.680Z,6.40
2022-12-19T22:01:26.231Z,6.40
2022-12-19T22:04:21.106Z,6.50
2022-12-19T22:07:09.479Z,6.50
2022-12-19T22:09:57.855Z,6.50
2022-12-19T22:12:46.080Z,6.60
2022-12-19T22:15:36.904Z,6.60
2022-12-19T22:18:25.452Z,6.70
2022-12-19T22:21:16.532Z,6.70
2022-12-19T22:24:05.569Z,6.80
2022-12-19T22:26:53.838Z,6.80
2022-12-19T22:29:42.111Z,6.90
2022-12-19T22:32:31.225Z,6.90
2022-12-19T22:35:20.161Z,6.90
2022-12-19T22:38:09.861Z,6.80
2022-12-19T22:40:58.095Z,6.80
2022-12-19T22:43:47.165Z,6.80
2022-12-19T22:46:37.100Z,6.80
2022-12-19T22:49:25.660Z,6.80
2022-12-19T22:52:14.133Z,6.80
2022-12-19T22:55:03.683Z,6.90
2022-12-19T22:57:51.988Z,7.00
2022-12-19T23:00:40.257Z,7.00
2022-12-19T23:03:29.419Z,7.00
2022-12-19T23:06:22.854Z,7.10
2022-12-19T23:09:13.877Z,7.10
2022-12-19T23:12:03.754Z,7.20
2022-12-19T23:14:52.085Z,7.30
2022-12-19T23:17:41.788Z,7.30
2022-12-19T23:20:30.163Z,7.20
2022-12-19T23:23:21.131Z,7.10
2022-12-19T23:26:15.609Z,7.10
2022-12-19T23:29:08.719Z,7.00
2022-12-19T23:31:57.055Z,6.90
2022-12-19T23:34:45.808Z,6.90
2022-12-19T23:37:34.013Z,6.90
2022-12-19T23:40:22.259Z,6.90
2022-12-19T23:43:10.746Z,6.90
2022-12-19T23:46:01.333Z,7.00
2022-12-19T23:48:49.621Z,7.00
2022-12-19T23:51:37.957Z,7.00
2022-12-19T23:54:26.208Z,7.00
2022-12-19T23:57:14.453Z,7.00
